Time;durP1;ratioP1;P1;durP2;ratioP2;P2;SDS_P1;SDS_P2;PMS_P1;PMS_P2;Temp;Humidity;BMP_temperature;BMP_pressure;BME280_temperature;BME280_humidity;BME280_pressure;Samples;Min_cycle;Max_cycle;Signal;HPM_P1;HPM_P2
2022/01/11 00:02:21;;;;;;;26.13;15.00;;;2.00;99.90;;;;;;6127386;23;20069;-88
2022/01/11 00:05:22;;;;;;;31.77;16.90;;;1.90;99.90;;;;;;6126939;23;20413;-89
2022/01/11 00:07:54;;;;;;;28.30;15.63;;;2.00;99.90;;;;;;6128053;23;20011;-89
2022/01/11 00:11:02;;;;;;;32.08;15.90;;;2.00;99.90;;;;;;6128496;23;20428;-88
2022/01/11 00:13:31;;;;;;;24.90;16.05;;;2.00;99.90;;;;;;6151788;23;20090;-88
2022/01/11 00:16:15;;;;;;;24.85;15.85;;;2.00;99.90;;;;;;6153687;23;20061;-88
2022/01/11 00:18:48;;;;;;;28.38;14.75;;;2.00;99.90;;;;;;6153536;23;20009;-89
2022/01/11 00:21:20;;;;;;;26.77;15.30;;;2.00;99.90;;;;;;6134189;23;20014;-89
2022/01/11 00:29:52;;;;;;;23.38;14.50;;;1.90;99.90;;;;;;6123484;23;20097;-88
2022/01/11 00:32:40;;;;;;;29.52;15.20;;;2.00;99.90;;;;;;6125992;23;20073;-89
2022/01/11 00:35:44;;;;;;;23.23;14.57;;;2.00;99.90;;;;;;6128898;23;20026;-89
2022/01/11 00:38:40;;;;;;;25.10;15.10;;;2.00;99.90;;;;;;6126475;23;20434;-88
2022/01/11 00:41:29;;;;;;;25.35;15.73;;;2.10;99.90;;;;;;6103668;23;20018;-88
2022/01/11 00:44:07;;;;;;;;;;;;;;;;;;;;;
2022/01/11 00:46:46;;;;;;;25.63;15.55;;;2.00;99.90;;;;;;6160484;23;20084;-89
2022/01/11 00:49:19;;;;;;;26.25;15.85;;;2.00;99.90;;;;;;6131742;23;20029;-88
2022/01/11 00:51:51;;;;;;;24.65;15.63;;;2.00;99.90;;;;;;6136453;23;20012;-88
2022/01/11 00:54:43;;;;;;;29.92;16.15;;;2.00;99.90;;;;;;6132411;23;20041;-89
2022/01/11 00:57:14;;;;;;;28.15;15.52;;;2.00;99.90;;;;;;6109626;23;20036;-88
2022/01/11 01:00:02;;;;;;;26.02;15.10;;;2.00;99.90;;;;;;6157348;23;20028;-89
2022/01/11 01:02:30;;;;;;;26.80;16.00;;;2.00;99.90;;;;;;6131508;23;20093;-89
2022/01/11 01:05:08;;;;;;;24.27;16.10;;;2.00;99.90;;;;;;6134157;23;20002;-90
2022/01/11 01:08:07;;;;;;;;;;;;;;;;;;;;;
2022/01/11 01:10:50;;;;;;;;;;;;;;;;;;;;;
2022/01/11 01:13:37;;;;;;;;;;;;;;;;;;;;;
2022/01/11 01:16:09;;;;;;;26.90;15.38;;;2.00;99.90;;;;;;6157687;23;20132;-90
2022/01/11 01:18:47;;;;;;;36.25;17.67;;;2.00;99.90;;;;;;6131333;23;20005;-89
2022/01/11 01:21:36;;;;;;;29.08;16.05;;;1.90;99.90;;;;;;6131335;23;20105;-89
2022/01/11 01:24:10;;;;;;;29.83;16.58;;;1.90;99.90;;;;;;6131541;23;20029;-89
2022/01/11 01:26:47;;;;;;;25.52;15.32;;;1.90;99.90;;;;;;6131741;23;20447;-88
2022/01/11 01:29:18;;;;;;;26.90;15.85;;;1.90;99.90;;;;;;6132133;23;20059;-89
2022/01/11 01:32:06;;;;;;;26.13;15.63;;;1.90;99.90;;;;;;6108833;23;20108;-89
2022/01/11 01:34:51;;;;;;;;;;;;;;;;;;;;;
2022/01/11 01:37:46;;;;;;;31.70;16.60;;;1.90;99.90;;;;;;6183163;23;20013;-89
2022/01/11 01:40:24;;;;;;;30.10;15.90;;;1.90;99.90;;;;;;6158156;23;20005;-87
2022/01/11 01:42:55;;;;;;;26.30;16.30;;;1.90;99.90;;;;;;6142101;23;20037;-89
2022/01/11 01:45:23;;;;;;;27.67;16.40;;;1.90;99.90;;;;;;6126590;23;20405;-89
2022/01/11 01:48:06;;;;;;;30.15;17.15;;;2.00;99.90;;;;;;6101935;23;20009;-90
2022/01/11 01:50:53;;;;;;;29.88;17.13;;;2.00;99.90;;;;;;6101473;23;20013;-89
2022/01/11 01:53:32;;;;;;;26.67;16.35;;;1.90;99.90;;;;;;6101352;23;20029;-89
2022/01/11 01:56:01;;;;;;;30.73;16.40;;;2.00;99.90;;;;;;6101737;23;19994;-89
2022/01/11 01:58:37;;;;;;;;;;;;;;;;;;;;;
2022/01/11 02:01:13;;;;;;;30.48;18.02;;;2.00;99.90;;;;;;6127204;23;20084;-89
2022/01/11 02:03:42;;;;;;;25.35;15.98;;;2.00;99.90;;;;;;6101159;23;20026;-89
2022/01/11 02:06:20;;;;;;;26.02;15.73;;;2.00;99.90;;;;;;6101876;23;20001;-89
2022/01/11 02:09:15;;;;;;;;;;;;;;;;;;;;;
2022/01/11 02:11:45;;;;;;;24.67;14.70;;;2.00;99.90;;;;;;6103419;23;20084;-89
2022/01/11 02:14:13;;;;;;;23.95;14.82;;;2.00;99.90;;;;;;6101431;23;20442;-89
2022/01/11 02:17:02;;;;;;;;;;;;;;;;;;;;;
2022/01/11 02:19:40;;;;;;;;;;;;;;;;;;;;;
2022/01/11 02:22:25;;;;;;;25.23;15.35;;;2.00;99.90;;;;;;6103893;23;20384;-88
2022/01/11 02:25:02;;;;;;;;;;;;;;;;;;;;;
2022/01/11 02:27:53;;;;;;;26.33;15.63;;;2.00;99.90;;;;;;6126772;23;20388;-88
2022/01/11 02:30:32;;;;;;;28.70;16.35;;;2.00;99.90;;;;;;6081184;23;20038;-88
2022/01/11 02:33:13;;;;;;;30.88;17.15;;;1.90;99.90;;;;;;6101291;23;20013;-89
2022/01/11 02:36:06;;;;;;;26.60;15.68;;;2.00;99.90;;;;;;6101193;23;20006;-89
2022/01/11 02:38:35;;;;;;;26.88;15.27;;;2.00;99.90;;;;;;6101805;23;19998;-90
2022/01/11 02:41:07;;;;;;;28.10;16.73;;;2.00;99.90;;;;;;6101940;23;20010;-89
2022/01/11 02:43:45;;;;;;;27.00;16.63;;;2.00;99.90;;;;;;6101687;23;19998;-89
2022/01/11 02:46:24;;;;;;;30.17;16.58;;;2.00;99.90;;;;;;6130324;23;20013;-88
2022/01/11 02:48:56;;;;;;;27.95;16.08;;;2.10;99.90;;;;;;6157351;23;19997;-90
2022/01/11 02:51:36;;;;;;;25.50;15.18;;;2.10;99.90;;;;;;6130596;23;20092;-89
2022/01/11 02:54:04;;;;;;;32.08;17.20;;;2.10;99.90;;;;;;6133232;23;20006;-89
2022/01/11 02:56:33;;;;;;;28.58;17.23;;;2.10;99.90;;;;;;6148464;23;20028;-88
2022/01/11 02:59:10;;;;;;;30.73;17.67;;;2.00;99.90;;;;;;6158088;23;19994;-89
2022/01/11 03:01:40;;;;;;;30.40;17.45;;;2.10;99.90;;;;;;6157802;23;19997;-88
2022/01/11 03:04:16;;;;;;;33.28;19.20;;;2.10;99.90;;;;;;6157839;23;20013;-87
2022/01/11 03:06:45;;;;;;;33.53;19.30;;;2.00;99.90;;;;;;6135534;23;20048;-89
2022/01/11 03:09:16;;;;;;;29.17;17.33;;;2.10;99.90;;;;;;6130668;23;19997;-88
2022/01/11 03:11:48;;;;;;;31.23;18.23;;;2.10;99.90;;;;;;6156840;23;20060;-88
2022/01/11 03:14:27;;;;;;;28.80;17.80;;;2.10;99.90;;;;;;6131002;23;20001;-89
2022/01/11 03:17:05;;;;;;;27.92;17.60;;;2.10;99.90;;;;;;6130387;23;20324;-89
2022/01/11 03:19:39;;;;;;;26.95;17.50;;;2.10;99.90;;;;;;6130467;23;20013;-89
2022/01/11 03:22:05;;;;;;;27.95;17.52;;;2.10;99.90;;;;;;6106496;23;20018;-89
2022/01/11 03:24:37;;;;;;;30.15;18.02;;;2.10;99.90;;;;;;6129065;23;20006;-89
2022/01/11 03:27:08;;;;;;;29.08;17.65;;;2.10;99.90;;;;;;6130219;23;20006;-88
2022/01/11 03:29:37;;;;;;;29.13;17.02;;;2.10;99.90;;;;;;6130069;23;19997;-89
2022/01/11 03:32:21;;;;;;;26.42;18.10;;;2.10;99.90;;;;;;6130655;23;20013;-90
2022/01/11 03:34:49;;;;;;;28.10;17.02;;;2.10;99.90;;;;;;6130723;23;20009;-89
2022/01/11 03:37:20;;;;;;;31.10;17.60;;;2.10;99.90;;;;;;6130408;23;20080;-90
2022/01/11 03:39:47;;;;;;;27.95;17.75;;;2.10;99.90;;;;;;6107164;23;20060;-88
2022/01/11 03:42:17;;;;;;;27.40;16.90;;;2.10;99.90;;;;;;6132664;23;20013;-89
2022/01/11 03:44:55;;;;;;;30.05;18.10;;;2.10;99.90;;;;;;6132117;23;20032;-89
2022/01/11 03:47:48;;;;;;;29.27;18.27;;;2.10;99.90;;;;;;6134426;23;20006;-89
2022/01/11 03:50:21;;;;;;;30.00;17.95;;;2.10;99.90;;;;;;6137436;23;20013;-88
2022/01/11 03:53:07;;;;;;;;;;;;;;;;;;;;;
2022/01/11 03:56:21;;;;;;;30.10;17.65;;;2.10;99.90;;;;;;6157795;23;20073;-88
2022/01/11 03:58:52;;;;;;;28.58;18.35;;;2.10;99.90;;;;;;6132015;23;20316;-89
2022/01/11 04:01:25;;;;;;;29.75;18.38;;;2.20;99.90;;;;;;6131652;23;20021;-89
2022/01/11 04:04:29;;;;;;;26.80;17.38;;;2.10;99.90;;;;;;6132393;23;19997;-89
2022/01/11 04:07:08;;;;;;;30.90;18.08;;;2.20;99.90;;;;;;6131225;23;20504;-89
2022/01/11 04:10:10;;;;;;;27.65;17.52;;;2.20;99.90;;;;;;6134381;23;20040;-89
2022/01/11 04:12:35;;;;;;;;;;;2.20;99.90;;;;;;6150789;23;20002;-88
2022/01/11 04:15:08;;;;;;;29.33;18.27;;;2.20;99.90;;;;;;6132707;23;19923;-89
2022/01/11 04:17:55;;;;;;;27.88;17.75;;;2.20;99.90;;;;;;6109509;23;20029;-89
2022/01/11 04:20:50;;;;;;;27.05;17.25;;;2.20;99.90;;;;;;6158077;23;19981;-89
2022/01/11 04:23:23;;;;;;;29.58;18.40;;;2.20;99.90;;;;;;6140655;23;20009;-88
2022/01/11 04:26:04;;;;;;;28.70;17.83;;;2.20;99.90;;;;;;6147854;23;20428;-87
2022/01/11 04:28:36;;;;;;;31.17;19.20;;;2.20;99.90;;;;;;6135725;23;20010;-88
2022/01/11 04:31:08;;;;;;;29.17;18.85;;;2.20;99.90;;;;;;6133816;23;20332;-89
2022/01/11 04:33:46;;;;;;;29.45;17.85;;;2.20;99.90;;;;;;6132171;23;20100;-88
2022/01/11 04:36:15;;;;;;;29.10;18.48;;;2.20;99.90;;;;;;6109539;23;20009;-88
2022/01/11 04:38:43;;;;;;;31.95;19.30;;;2.20;99.90;;;;;;6131686;23;20002;-88
2022/01/11 04:41:19;;;;;;;33.15;19.25;;;2.20;99.90;;;;;;6157502;23;20005;-89
2022/01/11 04:43:56;;;;;;;30.50;19.25;;;2.20;99.90;;;;;;6131748;23;20102;-88
2022/01/11 04:46:37;;;;;;;28.38;18.67;;;2.20;99.90;;;;;;6127294;23;20345;-90
2022/01/11 04:49:05;;;;;;;30.83;19.83;;;2.20;99.90;;;;;;6127709;23;20456;-88
2022/01/11 04:51:47;;;;;;;;;;;;;;;;;;;;;
2022/01/11 04:54:21;;;;;;;31.33;19.15;;;2.20;99.90;;;;;;6128308;23;20081;-89
2022/01/11 04:57:29;;;;;;;29.13;18.45;;;2.20;99.90;;;;;;6102305;23;19998;-89
2022/01/11 05:00:00;;;;;;;27.48;18.08;;;2.30;99.90;;;;;;6101543;23;20002;-89
2022/01/11 05:02:45;;;;;;;32.58;17.50;;;2.20;99.90;;;;;;6101756;23;20062;-87
2022/01/11 05:05:31;;;;;;;24.52;17.38;;;2.30;99.90;;;;;;6081050;23;20074;-88
2022/01/11 05:08:12;;;;;;;;;;;;;;;;;;;;;
2022/01/11 05:10:49;;;;;;;26.52;17.05;;;2.20;99.90;;;;;;6104815;23;20093;-89
2022/01/11 05:13:22;;;;;;;26.55;17.02;;;2.20;99.90;;;;;;6102271;23;20013;-88
2022/01/11 05:16:09;;;;;;;;;;;;;;;;;;;;;
2022/01/11 05:18:40;;;;;;;28.05;16.90;;;2.20;99.90;;;;;;6104987;23;20089;-87
2022/01/11 05:21:06;;;;;;;28.25;18.42;;;2.20;99.90;;;;;;6101578;23;20006;-89
2022/01/11 05:24:05;;;;;;;;;;;;;;;;;;;;;
2022/01/11 05:26:57;;;;;;;28.63;17.42;;;2.20;99.90;;;;;;6127646;23;20093;-88
2022/01/11 05:29:32;;;;;;;;;;;2.20;99.90;;;;;;6106781;23;20097;-88
2022/01/11 05:32:04;;;;;;;28.20;16.83;;;2.10;99.90;;;;;;6073380;23;19909;-88
2022/01/11 05:34:35;;;;;;;26.88;17.02;;;2.10;99.90;;;;;;6102135;23;20009;-87
2022/01/11 05:37:08;;;;;;;29.08;17.58;;;2.00;99.90;;;;;;6102125;23;20002;-88
2022/01/11 05:39:36;;;;;;;26.88;17.15;;;2.00;99.90;;;;;;6102682;23;20002;-88
2022/01/11 05:42:17;;;;;;;27.77;17.52;;;2.00;99.90;;;;;;6102799;23;20014;-87
2022/01/11 05:44:46;;;;;;;27.70;17.40;;;2.00;99.90;;;;;;6115389;23;20448;-88
2022/01/11 05:47:15;;;;;;;26.83;16.90;;;2.00;99.90;;;;;;6157021;23;20025;-88
2022/01/11 05:49:49;;;;;;;27.23;17.17;;;2.00;99.90;;;;;;6149553;23;20328;-88
2022/01/11 05:52:17;;;;;;;26.65;17.20;;;2.00;99.90;;;;;;6131662;23;20006;-87
2022/01/11 05:54:58;;;;;;;27.33;16.88;;;2.00;99.90;;;;;;6106855;23;20002;-87
2022/01/11 05:57:28;;;;;;;25.88;16.42;;;2.00;99.90;;;;;;6109503;23;20009;-87
2022/01/11 06:00:20;;;;;;;26.80;17.55;;;1.90;99.90;;;;;;6130806;23;20009;-87
2022/01/11 06:03:02;;;;;;;;;;;;;;;;;;;;;
2022/01/11 06:05:38;;;;;;;28.85;17.23;;;2.00;99.90;;;;;;6156796;23;20076;-89
2022/01/11 06:08:17;;;;;;;31.52;18.02;;;1.90;99.90;;;;;;6130527;23;19998;-88
2022/01/11 06:10:48;;;;;;;25.83;16.38;;;1.90;99.90;;;;;;6131270;23;19998;-88
2022/01/11 06:13:27;;;;;;;27.65;17.10;;;1.90;99.90;;;;;;6130573;23;20424;-88
2022/01/11 06:16:03;;;;;;;26.70;15.75;;;1.90;99.90;;;;;;6107607;23;20021;-89
2022/01/11 06:18:34;;;;;;;25.63;16.92;;;1.90;99.90;;;;;;6107570;23;20010;-88
2022/01/11 06:21:10;;;;;;;;;;;;;;;;;;;;;
2022/01/11 06:24:10;;;;;;;26.20;16.80;;;1.90;99.90;;;;;;6156567;23;20081;-88
2022/01/11 06:26:42;;;;;;;31.02;18.52;;;1.80;99.90;;;;;;6108890;23;20044;-88
2022/01/11 06:29:16;;;;;;;29.02;18.48;;;1.90;99.90;;;;;;6130959;23;20013;-89
2022/01/11 06:31:50;;;;;;;28.08;17.90;;;1.90;99.90;;;;;;6132026;23;20006;-87
2022/01/11 06:34:24;;;;;;;29.73;18.42;;;1.90;99.90;;;;;;6106280;23;20068;-88
2022/01/11 06:39:49;;;;;;;33.20;19.80;;;1.90;99.90;;;;;;6149525;23;20005;-87
2022/01/11 06:42:36;;;;;;;32.92;19.95;;;1.90;99.90;;;;;;6131646;23;20076;-88
2022/01/11 06:45:02;;;;;;;34.72;21.80;;;1.90;99.90;;;;;;6130725;23;20327;-89
2022/01/11 06:48:06;;;;;;;33.80;20.10;;;1.90;99.90;;;;;;6131057;23;20006;-89
2022/01/11 06:50:41;;;;;;;33.78;20.38;;;1.90;99.90;;;;;;6157665;23;19997;-87
2022/01/11 06:53:19;;;;;;;;;;;;;;;;;;;;;
2022/01/11 06:55:48;;;;;;;36.50;21.85;;;1.90;99.90;;;;;;6155996;23;20076;-86
2022/01/11 06:58:22;;;;;;;37.63;22.25;;;1.90;99.90;;;;;;6130189;23;20451;-86
2022/01/11 07:00:53;;;;;;;36.83;20.77;;;2.00;99.90;;;;;;6159124;23;20013;-85
2022/01/11 07:03:19;;;;;;;;;;;1.90;99.90;;;;;;6145729;23;19986;-86
2022/01/11 07:05:52;;;;;;;37.97;21.02;;;2.00;99.90;;;;;;6132857;23;19915;-86
2022/01/11 07:08:18;;;;;;;34.75;21.05;;;1.90;99.90;;;;;;6156950;23;20039;-84
2022/01/11 07:11:00;;;;;;;41.17;25.25;;;1.90;99.90;;;;;;6146465;23;20338;-86
2022/01/11 07:13:26;;;;;;;40.00;24.10;;;1.90;99.90;;;;;;6129960;23;20072;-86
2022/01/11 07:15:52;;;;;;;41.28;23.42;;;1.90;99.90;;;;;;6131022;23;20051;-87
2022/01/11 07:18:25;;;;;;;36.90;22.35;;;1.90;99.90;;;;;;6130037;23;20009;-87
2022/01/11 07:21:03;;;;;;;37.92;23.58;;;1.90;99.90;;;;;;6131351;23;20009;-87
2022/01/11 07:23:42;;;;;;;40.08;22.83;;;1.90;99.90;;;;;;6131250;23;20013;-87
2022/01/11 07:26:08;;;;;;;37.60;22.90;;;1.80;99.90;;;;;;6131748;23;20002;-86
2022/01/11 07:28:37;;;;;;;39.70;22.48;;;1.80;99.90;;;;;;6131212;23;20377;-86
2022/01/11 07:31:10;;;;;;;41.13;22.92;;;1.80;99.90;;;;;;6106786;23;20068;-87
2022/01/11 07:33:36;;;;;;;37.40;21.33;;;1.80;99.90;;;;;;6131659;23;20052;-85
2022/01/11 07:36:04;;;;;;;35.65;21.10;;;1.80;99.90;;;;;;6130756;23;20432;-85
2022/01/11 07:38:30;;;;;;;35.75;20.65;;;1.80;99.90;;;;;;6130920;23;20001;-86
2022/01/11 07:41:07;;;;;;;35.88;21.42;;;1.80;99.90;;;;;;6131948;23;20033;-86
2022/01/11 07:43:40;;;;;;;35.83;20.90;;;1.80;99.90;;;;;;6133711;23;20001;-87
2022/01/11 07:46:11;;;;;;;32.90;19.70;;;1.80;99.90;;;;;;6131148;23;20021;-87
2022/01/11 07:48:49;;;;;;;;;;;;;;;;;;;;;
2022/01/11 07:51:19;;;;;;;32.95;20.58;;;1.80;99.90;;;;;;6133382;23;20081;-87
2022/01/11 07:53:45;;;;;;;32.25;20.10;;;1.80;99.90;;;;;;6131179;23;20005;-87
2022/01/11 07:56:16;;;;;;;31.08;18.98;;;1.80;99.90;;;;;;6157012;23;20008;-87
2022/01/11 07:58:49;;;;;;;31.13;19.35;;;1.80;99.90;;;;;;6132475;23;20028;-87
2022/01/11 08:01:28;;;;;;;;;;;;;;;;;;;;;
2022/01/11 08:04:04;;;;;;;27.95;17.58;;;1.80;99.90;;;;;;6157723;23;20514;-88
2022/01/11 08:06:30;;;;;;;24.63;16.63;;;1.80;99.90;;;;;;6132869;23;20427;-91
2022/01/11 08:08:56;;;;;;;29.23;16.83;;;1.80;99.90;;;;;;6131986;23;20060;-89
2022/01/11 08:11:24;;;;;;;25.25;16.23;;;1.80;99.90;;;;;;6131765;23;20056;-89
2022/01/11 08:13:50;;;;;;;28.70;16.63;;;1.80;99.90;;;;;;6131876;23;20455;-87
2022/01/11 08:16:39;;;;;;;;;;;;;;;;;;;;;
2022/01/11 08:19:30;;;;;;;24.48;15.60;;;1.80;99.90;;;;;;6135802;23;20081;-88
2022/01/11 08:22:02;;;;;;;25.53;15.93;;;1.90;99.90;;;;;;6112879;23;20020;-89
2022/01/11 08:24:31;;;;;;;26.73;17.35;;;1.90;99.90;;;;;;6133148;23;20237;-89
2022/01/11 08:27:00;;;;;;;26.17;16.33;;;1.90;99.90;;;;;;6157889;23;19996;-90
2022/01/11 08:29:25;;;;;;;24.33;15.90;;;1.90;99.90;;;;;;6158291;23;20013;-88
2022/01/11 08:31:51;;;;;;;25.50;15.93;;;1.90;99.90;;;;;;6158287;23;19989;-88
2022/01/11 08:34:20;;;;;;;24.63;15.30;;;1.90;99.90;;;;;;6145862;23;20010;-87
2022/01/11 08:36:50;;;;;;;22.75;15.60;;;1.90;99.90;;;;;;6107348;23;20100;-87
2022/01/11 08:39:18;;;;;;;24.83;15.73;;;2.00;99.90;;;;;;6131679;23;20002;-86
2022/01/11 08:42:04;;;;;;;22.38;15.15;;;2.00;99.90;;;;;;6130737;23;20041;-87
2022/01/11 08:44:30;;;;;;;25.42;16.10;;;2.00;99.90;;;;;;6134373;23;20454;-87
2022/01/11 08:46:55;;;;;;;25.63;15.88;;;2.10;99.90;;;;;;6106286;23;20006;-87
2022/01/11 08:49:24;;;;;;;25.73;16.90;;;2.10;99.90;;;;;;6130647;23;20009;-89
2022/01/11 08:51:50;;;;;;;23.30;15.95;;;2.10;99.90;;;;;;6133068;23;20001;-87
2022/01/11 08:54:18;;;;;;;21.90;14.57;;;2.10;99.90;;;;;;6130753;23;20093;-86
2022/01/11 08:56:44;;;;;;;22.98;15.05;;;2.20;99.90;;;;;;6130859;23;20320;-87
2022/01/11 08:59:18;;;;;;;26.63;15.82;;;2.20;99.90;;;;;;6130771;23;20447;-88
2022/01/11 09:01:44;;;;;;;25.75;15.63;;;2.30;99.90;;;;;;6131105;23;20005;-88
2022/01/11 09:04:12;;;;;;;23.77;15.45;;;2.30;99.90;;;;;;6131635;23;20017;-87
2022/01/11 09:06:38;;;;;;;24.75;15.43;;;2.30;99.90;;;;;;6130618;23;20057;-88
2022/01/11 09:09:04;;;;;;;24.73;15.85;;;2.30;99.90;;;;;;6131198;23;20018;-87
2022/01/11 09:11:33;;;;;;;25.15;15.77;;;2.30;99.90;;;;;;6130073;23;20070;-87
2022/01/11 09:13:58;;;;;;;23.45;15.45;;;2.40;99.90;;;;;;6130594;23;20008;-87
2022/01/11 09:16:27;;;;;;;24.60;16.02;;;2.40;99.90;;;;;;6129753;23;20005;-87
2022/01/11 09:19:01;;;;;;;27.15;16.23;;;2.40;99.90;;;;;;6130602;23;20002;-87
2022/01/11 09:21:27;;;;;;;25.00;16.02;;;2.40;99.90;;;;;;6130673;23;20014;-87
2022/01/11 09:23:55;;;;;;;22.10;15.85;;;2.40;99.90;;;;;;6129715;23;20524;-87
2022/01/11 09:26:24;;;;;;;24.02;14.90;;;2.50;99.90;;;;;;6106234;23;20037;-87
2022/01/11 09:28:50;;;;;;;24.27;16.13;;;2.50;99.90;;;;;;6130445;23;20005;-87
2022/01/11 09:31:17;;;;;;;25.00;15.93;;;2.50;99.90;;;;;;6130239;23;20009;-87
2022/01/11 09:33:43;;;;;;;24.27;15.98;;;2.60;99.90;;;;;;6130579;23;20001;-87
2022/01/11 09:36:09;;;;;;;24.20;15.38;;;2.60;99.90;;;;;;6130215;23;20040;-87
2022/01/11 09:38:37;;;;;;;23.20;15.60;;;2.60;99.90;;;;;;6130518;23;20001;-87
2022/01/11 09:41:03;;;;;;;28.92;18.58;;;2.70;99.90;;;;;;6131778;23;20013;-87
2022/01/11 09:43:31;;;;;;;29.17;17.63;;;2.70;99.90;;;;;;6133751;23;20028;-87
2022/01/11 09:45:57;;;;;;;28.13;17.23;;;2.70;99.90;;;;;;6166662;23;20009;-86
2022/01/11 09:48:27;;;;;;;28.60;16.48;;;2.80;99.90;;;;;;6152141;23;20024;-87
2022/01/11 09:50:57;;;;;;;28.40;17.30;;;2.80;99.90;;;;;;6156760;23;20006;-89
2022/01/11 09:53:25;;;;;;;31.25;18.17;;;2.90;99.90;;;;;;6149272;23;20005;-89
2022/01/11 09:55:54;;;;;;;28.33;17.35;;;2.90;99.90;;;;;;6138803;23;20002;-87
2022/01/11 09:58:21;;;;;;;28.17;17.27;;;2.90;99.90;;;;;;6131239;23;20494;-88
2022/01/11 10:00:51;;;;;;;26.15;17.27;;;2.90;99.90;;;;;;6130864;23;20002;-87
2022/01/11 10:03:23;;;;;;;26.02;16.30;;;3.00;99.90;;;;;;6130327;23;20006;-87
2022/01/11 10:06:25;;;;;;;;;;;;;;;;;;;;;
2022/01/11 10:09:11;;;;;;;30.23;17.88;;;3.00;99.90;;;;;;6156015;23;20084;-87
2022/01/11 10:11:52;;;;;;;;;;;;;;;;;;;;;
2022/01/11 10:14:37;;;;;;;28.45;17.52;;;3.10;99.90;;;;;;6132772;23;20076;-87
2022/01/11 10:17:18;;;;;;;28.83;16.75;;;3.10;99.90;;;;;;6129866;23;20011;-87
2022/01/11 10:20:20;;;;;;;26.08;16.55;;;3.20;99.90;;;;;;6129530;23;20010;-88
2022/01/11 10:23:16;;;;;;;28.40;16.73;;;3.20;99.90;;;;;;6154590;23;20022;-89
2022/01/11 10:25:46;;;;;;;30.15;16.95;;;3.20;99.90;;;;;;6150543;23;20006;-87
2022/01/11 10:28:17;;;;;;;46.88;27.58;;;3.20;99.90;;;;;;6129526;23;20008;-88
2022/01/11 10:31:10;;;;;;;44.72;25.40;;;3.20;99.90;;;;;;6081799;23;20044;-90
2022/01/11 10:34:25;;;;;;;34.20;19.52;;;3.20;99.90;;;;;;6130242;23;20004;-91
2022/01/11 10:36:53;;;;;;;29.30;17.10;;;3.30;99.90;;;;;;6130768;23;20032;-90
2022/01/11 10:39:37;;;;;;;30.55;16.55;;;3.30;99.90;;;;;;6130812;23;20006;-87
2022/01/11 10:42:04;;;;;;;29.83;17.58;;;3.30;99.90;;;;;;6129654;23;20016;-88
2022/01/11 10:44:44;;;;;;;30.75;16.52;;;3.40;99.90;;;;;;6124284;23;20014;-87
2022/01/11 10:47:19;;;;;;;27.77;15.73;;;3.40;99.90;;;;;;6124873;23;20002;-87
2022/01/11 10:49:44;;;;;;;30.23;16.27;;;3.40;99.90;;;;;;6126441;23;20080;-89
2022/01/11 10:52:24;;;;;;;26.60;15.82;;;3.40;99.90;;;;;;6127443;23;20440;-88
2022/01/11 10:54:54;;;;;;;26.80;16.58;;;3.40;99.90;;;;;;6127401;23;20006;-87
2022/01/11 10:57:32;;;;;;;29.80;16.48;;;3.50;99.90;;;;;;6126915;23;20025;-87
2022/01/11 11:00:21;;;;;;;27.98;16.73;;;3.50;99.90;;;;;;6126880;23;20006;-87
2022/01/11 11:03:20;;;;;;;28.42;16.50;;;3.60;99.90;;;;;;6126847;23;20073;-87
2022/01/11 11:05:46;;;;;;;32.25;17.05;;;3.60;99.90;;;;;;6127083;23;20041;-87
2022/01/11 11:08:18;;;;;;;27.50;16.25;;;3.60;99.90;;;;;;6129615;23;20049;-87
2022/01/11 11:10:59;;;;;;;27.52;16.80;;;3.60;99.90;;;;;;6134085;23;19998;-87
2022/01/11 11:13:40;;;;;;;28.67;16.63;;;3.70;99.90;;;;;;6152674;23;20097;-87
2022/01/11 11:16:30;;;;;;;27.45;15.73;;;3.70;99.90;;;;;;6154022;23;20009;-88
2022/01/11 11:19:04;;;;;;;27.75;15.05;;;3.70;99.90;;;;;;6152713;23;20006;-87
2022/01/11 11:21:37;;;;;;;30.80;17.08;;;3.80;99.90;;;;;;6134653;23;20065;-88
2022/01/11 11:24:21;;;;;;;28.95;16.50;;;3.70;99.90;;;;;;6103489;23;20010;-88
2022/01/11 11:26:51;;;;;;;28.05;15.25;;;3.80;99.90;;;;;;6127362;23;20056;-88
2022/01/11 11:29:19;;;;;;;28.25;16.23;;;3.80;99.90;;;;;;6127014;23;20005;-88
2022/01/11 11:31:46;;;;;;;28.88;16.10;;;3.80;99.90;;;;;;6127027;23;20006;-88
2022/01/11 11:34:12;;;;;;;25.98;15.90;;;3.90;99.90;;;;;;6127673;23;20002;-88
2022/01/11 11:36:49;;;;;;;24.52;14.15;;;3.90;99.90;;;;;;6127336;23;20026;-90
2022/01/11 11:39:18;;;;;;;24.58;15.30;;;4.00;99.90;;;;;;6128515;23;20005;-90
2022/01/11 11:41:57;;;;;;;26.95;15.20;;;4.00;99.90;;;;;;6127248;23;20088;-91
2022/01/11 11:44:51;;;;;;;27.35;14.07;;;4.00;99.90;;;;;;6127737;23;20520;-90
2022/01/11 11:47:38;;;;;;;25.88;15.35;;;4.10;99.90;;;;;;6130104;23;20088;-90
2022/01/11 11:50:26;;;;;;;25.58;14.48;;;4.20;99.90;;;;;;6128097;23;20456;-90
2022/01/11 11:53:00;;;;;;;26.77;15.80;;;4.30;99.90;;;;;;6129577;23;20076;-89
2022/01/11 11:55:34;;;;;;;24.67;14.88;;;4.30;99.90;;;;;;6128746;23;19998;-91
2022/01/11 11:58:06;;;;;;;26.70;15.00;;;4.30;99.90;;;;;;6127935;23;20492;-90
2022/01/11 12:00:47;;;;;;;25.35;15.00;;;4.40;99.90;;;;;;6127044;23;20002;-90
2022/01/11 12:06:45;;;;;;;26.48;14.68;;;4.40;99.90;;;;;;6128940;23;20005;-92
2022/01/11 12:09:17;;;;;;;24.90;15.00;;;4.50;99.90;;;;;;6114185;23;20006;-88
2022/01/11 12:11:49;;;;;;;28.38;17.38;;;4.40;99.90;;;;;;6125794;23;20006;-88
2022/01/11 12:14:57;;;;;;;29.58;17.83;;;4.50;99.90;;;;;;6127585;23;20002;-90
2022/01/11 12:17:48;;;;;;;36.72;22.63;;;4.50;99.90;;;;;;6105995;23;20053;-89
2022/01/11 12:23:43;;;;;;;28.85;16.13;;;4.60;99.90;;;;;;6121752;23;20081;-88
2022/01/11 12:26:29;;;;;;;;;;;;;;;;;;;;;
2022/01/11 12:29:11;;;;;;;23.38;13.77;;;4.60;99.90;;;;;;6127831;23;20085;-88
2022/01/11 12:32:20;;;;;;;;;;;;;;;;;;;;;
2022/01/11 12:34:46;;;;;;;24.40;14.88;;;4.70;99.90;;;;;;6128023;23;20089;-88
2022/01/11 12:37:38;;;;;;;23.58;14.20;;;4.70;99.90;;;;;;6128334;23;20017;-88
2022/01/11 12:40:35;;;;;;;21.60;13.52;;;4.70;99.90;;;;;;6150095;23;20057;-88
2022/01/11 12:43:16;;;;;;;20.33;13.40;;;4.70;99.90;;;;;;6152916;23;19998;-88
2022/01/11 12:46:13;;;;;;;22.03;12.90;;;4.70;99.90;;;;;;6155142;23;20045;-89
2022/01/11 12:49:01;;;;;;;;;;;;;;;;;;;;;
2022/01/11 12:51:49;;;;;;;21.98;13.50;;;4.70;99.90;;;;;;6158751;23;20080;-88
2022/01/11 12:55:04;;;;;;;;;;;;;;;;;;;;;
2022/01/11 13:00:23;;;;;;;21.40;13.43;;;4.70;99.90;;;;;;6096655;23;20002;-90
2022/01/11 13:02:52;;;;;;;22.30;13.20;;;4.70;99.90;;;;;;6132020;23;20021;-89
2022/01/11 13:05:27;;;;;;;18.83;13.18;;;4.70;99.90;;;;;;6131603;23;20056;-90
2022/01/11 13:08:08;;;;;;;21.08;12.95;;;4.70;99.90;;;;;;6131280;23;20002;-91
2022/01/11 13:10:38;;;;;;;22.65;13.43;;;4.70;99.90;;;;;;6131475;23;20009;-88
2022/01/11 13:13:14;;;;;;;20.48;12.77;;;4.70;99.90;;;;;;6130418;23;20012;-88
2022/01/11 13:15:53;;;;;;;19.98;13.15;;;4.70;99.90;;;;;;6130460;23;20048;-88
2022/01/11 13:19:04;;;;;;;19.98;13.48;;;4.70;99.90;;;;;;6131584;23;20010;-89
2022/01/11 13:21:32;;;;;;;21.20;12.68;;;4.70;99.90;;;;;;6152799;23;20093;-88
2022/01/11 13:27:07;;;;;;;20.80;13.02;;;4.70;99.90;;;;;;6155985;23;20013;-87
2022/01/11 13:29:33;;;;;;;21.63;13.73;;;4.70;99.90;;;;;;6130937;23;20426;-87
2022/01/11 13:32:15;;;;;;;20.13;12.70;;;4.60;99.90;;;;;;6130960;23;20005;-88
2022/01/11 13:34:53;;;;;;;;;;;;;;;;;;;;;
2022/01/11 13:37:31;;;;;;;22.05;13.35;;;4.60;99.90;;;;;;6156424;23;20088;-87
2022/01/11 13:40:18;;;;;;;21.80;13.95;;;4.60;99.90;;;;;;6106276;23;20009;-89
2022/01/11 13:43:07;;;;;;;21.77;13.07;;;4.70;99.90;;;;;;6106478;23;20072;-88
2022/01/11 13:46:19;;;;;;;;;;;;;;;;;;;;;
2022/01/11 13:49:12;;;;;;;20.33;13.07;;;4.70;99.90;;;;;;6096455;23;20029;-88
2022/01/11 13:51:51;;;;;;;23.45;14.52;;;4.70;99.90;;;;;;6094410;23;20429;-89
2022/01/11 13:54:18;;;;;;;23.38;14.23;;;4.70;99.90;;;;;;6100094;23;20002;-87
2022/01/11 13:56:48;;;;;;;26.55;15.93;;;4.70;99.90;;;;;;6099405;23;20006;-87
2022/01/11 13:59:30;;;;;;;;;;;;;;;;;;;;;
2022/01/11 14:02:14;;;;;;;44.90;26.67;;;4.70;99.90;;;;;;6126928;23;20081;-89
2022/01/11 14:05:04;;;;;;;32.45;19.83;;;4.70;99.90;;;;;;6104855;23;20054;-88
2022/01/11 14:07:33;;;;;;;26.45;16.85;;;4.80;99.90;;;;;;6125689;23;20074;-88
2022/01/11 14:10:18;;;;;;;23.98;15.32;;;4.70;99.90;;;;;;6125286;23;20006;-84
2022/01/11 14:12:47;;;;;;;20.25;13.82;;;4.80;99.90;;;;;;6102308;23;20006;-88
2022/01/11 14:15:25;;;;;;;26.23;15.00;;;4.80;99.90;;;;;;6107947;23;20006;-88
2022/01/11 14:17:51;;;;;;;22.52;13.65;;;4.90;99.90;;;;;;6077277;23;20009;-87
2022/01/11 14:20:24;;;;;;;21.00;13.80;;;4.90;99.90;;;;;;6099536;23;20001;-87
2022/01/11 14:23:18;;;;;;;;;;;;;;;;;;;;;
2022/01/11 14:25:55;;;;;;;22.60;14.35;;;4.90;99.90;;;;;;6104579;23;20114;-86
2022/01/11 14:28:34;;;;;;;24.35;13.63;;;4.90;99.90;;;;;;6100251;23;19999;-88